Have a Safe July 4th! 

Flight Track Log - Related Links

Times and Time Zones

All times are in EDT time to prevent confusion due to time zone crossing. See the DAL1515 flight status page for this flight to view local times or setup timezone preferences in your user account.

Time Position Orientation Groundspeed Altitude Reporting Facility
EDT Latitude Longitude Course Direction KTS MPH feet Rate Location/Type
Sat 08:31:31 PM 33.6500 -84.4000 North 168 193 2,000  Level Atlanta TRACON
Sat 08:32:31 PM 33.6500 -84.3333 90° East 218 251 3,700 2,200 Climbing Atlanta TRACON
Sat 08:33:31 PM 33.6833 -84.2667 59° Northeast 272 313 6,400 2,900 Climbing Atlanta TRACON
Sat 08:34:00 PM 33.9409 -84.2667 North  Level FlightAware Approximate
Sat 08:34:31 PM 33.7833 -84.2667 360° North 306 352 9,500  Level Atlanta TRACON
Sat 08:35:00 PM 34.0663 -84.2667 North  Level FlightAware Approximate
Sat 08:36:00 PM 34.1917 -84.2667 North  Level FlightAware Approximate
Sat 08:36:55 PM 34.0111 -84.2694 359° North 370 426 11,800  Level Atlanta Center
Sat 08:37:55 PM 34.1092 -84.2747 357° North 376 433 14,200 2,250 Climbing Atlanta Center
Sat 08:38:55 PM 34.2344 -84.2775 359° North 401 461 16,300 1,800 Climbing Atlanta Center
Sat 08:39:55 PM 34.3431 -84.2703 North 418 481 17,800 1,700 Climbing Atlanta Center
Sat 08:40:55 PM 34.4683 -84.2378 12° North 445 512 19,700 1,900 Climbing Atlanta Center
Sat 08:41:55 PM 34.5956 -84.2103 10° North 454 522 21,600 1,750 Climbing Atlanta Center
Sat 08:42:55 PM 34.7186 -84.1828 10° North 458 527 23,200 1,450 Climbing Atlanta Center
Sat 08:43:55 PM 34.8564 -84.1500 11° North 471 542 24,500 1,350 Climbing Atlanta Center
Sat 08:44:55 PM 34.9922 -84.1175 11° North 487 560 25,900 1,450 Climbing Atlanta Center
Sat 08:45:55 PM 35.1342 -84.0844 11° North 493 567 27,400 1,550 Climbing Atlanta Center
Sat 08:46:55 PM 35.2717 -84.0514 11° North 504 580 29,000 1,300 Climbing Atlanta Center
Sat 08:47:55 PM 35.4094 -84.0158 12° North 504 580 30,000 650 Climbing Atlanta Center
Sat 08:48:55 PM 35.5450 -83.9853 10° North 504 580 30,300 800 Climbing Atlanta Center
Sat 08:49:55 PM 35.6806 -83.9492 12° North 504 580 31,600 1,200 Climbing Atlanta Center
Sat 08:50:55 PM 35.8183 -83.9158 11° North 504 580 32,700 1,050 Climbing Atlanta Center
Sat 08:51:55 PM 35.9497 -83.8669 17° North 499 574 33,700 900 Climbing Atlanta Center
Sat 08:52:55 PM 36.0706 -83.7922 27° Northeast 488 562 34,500 569 Climbing Atlanta Center
Sat 08:54:12 PM 36.2328 -83.6867 28° Northeast 483 556 35,000 217 Climbing Indianapolis Center
Sat 08:55:13 PM 36.3511 -83.6114 27° Northeast 481 554 35,000  Level Indianapolis Center
Sat 08:56:13 PM 36.4683 -83.5350 28° Northeast 478 550 35,000  Level Indianapolis Center
Sat 08:57:14 PM 36.5953 -83.4558 27° Northeast 480 552 35,000  Level Indianapolis Center
Sat 08:58:15 PM 36.7050 -83.3633 34° Northeast 472 543 35,000  Level Indianapolis Center
Sat 08:59:16 PM 36.8092 -83.2667 37° Northeast 464 534 35,000  Level Indianapolis Center
Sat 09:00:17 PM 36.9139 -83.1689 37° Northeast 462 532 35,000  Level Indianapolis Center
Sat 09:01:18 PM 37.0200 -83.0719 36° Northeast 463 533 35,000  Level Indianapolis Center
Sat 09:02:19 PM 37.1242 -82.9697 38° Northeast 468 539 35,000  Level Indianapolis Center
Sat 09:03:20 PM 37.2183 -82.8581 43° Northeast 463 533 35,000  Level Indianapolis Center
Sat 09:04:21 PM 37.3094 -82.7464 44° Northeast 458 527 35,000  Level Indianapolis Center
Sat 09:05:22 PM 37.3981 -82.6311 46° Northeast 456 525 35,000  Level Indianapolis Center
Sat 09:06:23 PM 37.4822 -82.5097 49° Northeast 459 528 35,000  Level Indianapolis Center
Sat 09:07:24 PM 37.5664 -82.3869 49° Northeast 462 532 35,000  Level Indianapolis Center
Sat 09:08:25 PM 37.6494 -82.2642 49° Northeast 460 529 35,000  Level Indianapolis Center
Sat 09:09:26 PM 37.7342 -82.1425 49° Northeast 460 529 35,000  Level Indianapolis Center
Sat 09:10:27 PM 37.8161 -82.0228 49° Northeast 452 520 35,000  Level Indianapolis Center
Sat 09:11:28 PM 37.8958 -81.9061 49° Northeast 460 529 35,000  Level Indianapolis Center
Sat 09:12:29 PM 37.9772 -81.7847 50° Northeast 455 524 35,000  Level Indianapolis Center
Sat 09:13:30 PM 38.0778 -81.6381 49° Northeast 460 529 35,000  Level Indianapolis Center
Sat 09:14:31 PM 38.1589 -81.5161 50° Northeast 455 524 35,000  Level Indianapolis Center
Sat 09:15:32 PM 38.2408 -81.3928 50° Northeast 459 528 35,000  Level Indianapolis Center
Sat 09:16:33 PM 38.3225 -81.2697 50° Northeast 460 529 35,000  Level Indianapolis Center
Sat 09:17:34 PM 38.4053 -81.1450 50° Northeast 464 534 35,000  Level Indianapolis Center
Sat 09:18:36 PM 38.4869 -81.0217 50° Northeast 459 528 35,000  Level Indianapolis Center
Sat 09:19:37 PM 38.5672 -80.8986 50° Northeast 455 524 35,000  Level Indianapolis Center
Sat 09:20:38 PM 38.6492 -80.7758 49° Northeast 456 525 35,000  Level Indianapolis Center
Sat 09:21:39 PM 38.7297 -80.6522 50° Northeast 454 522 35,000  Level Indianapolis Center
Sat 09:22:40 PM 38.8267 -80.5031 50° Northeast 453 521 35,000  Level Indianapolis Center
Sat 09:23:41 PM 38.9081 -80.3797 50° Northeast 455 524 35,000  Level Indianapolis Center
Sat 09:24:42 PM 38.9889 -80.2542 50° Northeast 456 525 35,000  Level Indianapolis Center
Sat 09:25:43 PM 39.0689 -80.1283 51° Northeast 456 525 35,000  Level Indianapolis Center
Sat 09:26:44 PM 39.1503 -80.0028 50° Northeast 457 526 35,000  Level Indianapolis Center
Sat 09:27:36 PM 39.2208 -79.9000 48° Northeast 456 525 35,000  Level Cleveland Center
Sat 09:28:36 PM 39.2992 -79.7731 51° Northeast 451 519 35,000  Level Cleveland Center
Sat 09:29:36 PM 39.3797 -79.6486 50° Northeast 451 519 35,000  Level Cleveland Center
Sat 09:30:36 PM 39.4597 -79.5211 51° Northeast 451 519 35,000  Level Cleveland Center
Sat 09:31:36 PM 39.5419 -79.3961 50° Northeast 456 525 35,000  Level Cleveland Center
Sat 09:32:36 PM 39.6219 -79.2678 51° Northeast 456 525 35,000  Level Cleveland Center
Sat 09:33:36 PM 39.6994 -79.1397 52° Northeast 451 519 35,000  Level Cleveland Center
Sat 09:34:36 PM 39.7792 -79.0136 51° Northeast 451 519 35,000  Level Cleveland Center
Sat 09:35:36 PM 39.8564 -78.8819 53° Northeast 451 519 35,000  Level Cleveland Center
Sat 09:36:36 PM 39.9336 -78.7583 51° Northeast 451 519 35,000  Level Cleveland Center
Sat 09:37:36 PM 40.0131 -78.6314 51° Northeast 451 519 35,000  Level Cleveland Center
Sat 09:38:36 PM 40.0897 -78.5017 52° Northeast 451 519 35,000  Level Cleveland Center
Sat 09:40:15 PM 40.2272 -78.2753 51° Northeast 452 520 35,000  Level New York Center
Sat 09:41:17 PM 40.3083 -78.1450 51° Northeast 452 520 35,000  Level New York Center
Sat 09:42:15 PM 40.3853 -78.0142 52° Northeast 457 526 35,000  Level New York Center
Sat 09:43:15 PM 40.4661 -77.8836 51° Northeast 462 532 35,000  Level New York Center
Sat 09:44:16 PM 40.5408 -77.7519 53° Northeast 462 532 35,000 -99 Level New York Center
Sat 09:45:16 PM 40.6194 -77.6203 52° Northeast 462 532 34,800 -942 Descending New York Center
Sat 09:46:17 PM 40.6978 -77.4914 51° Northeast 462 532 33,100 -908 Descending New York Center
Sat 09:47:15 PM 40.7736 -77.3617 52° Northeast 457 526 33,000 -50 Descending New York Center
Sat 09:48:17 PM 40.8450 -77.2422 52° Northeast 457 526 33,000 -900 Level New York Center
Sat 09:49:15 PM 40.9231 -77.1097 52° Northeast 457 526 31,200 -1,983 Descending New York Center
Sat 09:50:15 PM 41.0033 -76.9686 53° Northeast 463 533 29,100 -1,091 Descending New York Center
Sat 09:51:16 PM 41.0856 -76.8275 52° Northeast 473 544 29,000 -50 Descending New York Center
Sat 09:52:15 PM 41.1658 -76.6858 53° Northeast 473 544 29,000  Level New York Center
Sat 09:53:15 PM 41.2475 -76.5494 51° Northeast 478 550 29,000  Level New York Center
Sat 09:54:16 PM 41.3272 -76.4097 53° Northeast 478 550 29,000  Level New York Center
Sat 09:55:16 PM 41.4111 -76.2592 53° Northeast 498 573 29,000 -1,006 Level New York Center
Sat 09:57:03 PM 41.5608 -75.9944 53° Northeast 504 580 26,200 -1,401 Descending Boston Center
Sat 09:58:03 PM 41.6381 -75.8542 54° Northeast 483 556 25,100 -1,100 Descending Boston Center
Sat 09:59:03 PM 41.7217 -75.7083 52° Northeast 461 531 24,000 -550 Descending Boston Center
Sat 10:00:03 PM 41.7964 -75.5703 54° Northeast 456 525 24,000  Level Boston Center
Sat 10:01:03 PM 41.8731 -75.4319 53° Northeast 456 525 24,000  Level Boston Center
Sat 10:02:03 PM 41.9497 -75.2931 53° Northeast 465 535 24,000 -200 Level Boston Center
Sat 10:03:03 PM 42.0261 -75.1567 53° Northeast 465 535 23,600 -1,000 Descending Boston Center
Sat 10:04:03 PM 42.0914 -75.0364 54° Northeast 450 518 22,000 -1,900 Descending Boston Center
Sat 10:05:03 PM 42.1631 -74.9050 54° Northeast 445 512 19,800 -2,300 Descending Boston Center
Sat 10:06:03 PM 42.2347 -74.7731 54° Northeast 440 506 17,400 -2,500 Descending Boston Center
Sat 10:06:39 PM 42.2825 -74.6794 55° Northeast 420 483 15,800 -2,583 Descending Boston Center
Sat 10:07:15 PM 42.3214 -74.6050 55° Northeast 403 464 14,300 -2,357 Descending Boston Center
Sat 10:08:03 PM 42.3711 -74.5111 54° Northeast 405 466 12,500 -1,833 Descending Boston Center
Sat 10:09:03 PM 42.4272 -74.4092 53° Northeast 385 443 11,000 -1,150 Descending Boston Center
Sat 10:10:03 PM 42.4875 -74.2928 55° Northeast 354 407 10,200 -1,000 Descending Boston Center
Sat 10:11:03 PM 42.5347 -74.2067 53° Northeast 319 367 9,000 -1,400 Descending Boston Center
Sat 10:12:03 PM 42.5633 -74.0947 71° East 280 322 7,400 -1,500 Descending Boston Center
Sat 10:13:03 PM 42.5164 -74.0258 133° Southeast 258 297 6,000 -1,250 Descending Boston Center
Sat 10:14:03 PM 42.4592 -73.9458 134° Southeast 269 310 4,900 -900 Descending Boston Center
Sat 10:15:03 PM 42.4161 -73.8828 133° Southeast 262 302 4,200 -950 Descending Boston Center
Sat 10:16:03 PM 42.4422 -73.8075 65° Northeast 187 215 3,000 -600 Descending Boston Center
Sat 10:17:03 PM 42.4986 -73.7944 10° North 187 215 3,000  Level Boston Center
Sat 10:18:03 PM 42.5653 -73.7961 359° North 203 234 3,000  Level Boston Center

Login

Don't have an account? Register now (free) for customized features, flight alerts, and more!